Time;durP1;ratioP1;P1;durP2;ratioP2;P2;SDS_P1;SDS_P2;PMS_P1;PMS_P2;Temp;Humidity;BMP_temperature;BMP_pressure;BME280_temperature;BME280_humidity;BME280_pressure;Samples;Min_cycle;Max_cycle;Signal;HPM_P1;HPM_P2
2021/09/22 00:01:57;;;;;;;17.67;9.60;;;8.70;99.90;;;;;;1843775;77;21094;-79
2021/09/22 00:04:23;;;;;;;12.78;9.15;;;8.70;99.90;;;;;;1842507;76;21091;-79
2021/09/22 00:06:51;;;;;;;9.85;8.10;;;8.70;99.90;;;;;;1846887;76;21159;-80
2021/09/22 00:09:17;;;;;;;11.57;8.58;;;8.70;99.90;;;;;;1845351;76;21123;-79
2021/09/22 00:11:43;;;;;;;8.70;7.67;;;8.60;99.90;;;;;;1842710;77;21104;-79
2021/09/22 00:14:09;;;;;;;14.93;8.28;;;8.60;99.90;;;;;;1842225;76;21079;-78
2021/09/22 00:16:35;;;;;;;8.95;7.87;;;8.50;99.90;;;;;;1843183;77;21225;-78
2021/09/22 00:19:02;;;;;;;9.38;7.58;;;8.50;99.90;;;;;;1843494;78;21091;-79
2021/09/22 00:21:28;;;;;;;10.80;7.87;;;8.40;99.90;;;;;;1841905;77;21103;-79
2021/09/22 00:23:54;;;;;;;14.98;7.87;;;8.40;99.90;;;;;;1842575;77;21581;-79
2021/09/22 00:26:20;;;;;;;9.00;8.10;;;8.40;99.90;;;;;;1841994;78;21444;-79
2021/09/22 00:28:46;;;;;;;9.50;7.60;;;8.40;99.90;;;;;;1842925;78;21486;-79
2021/09/22 00:31:12;;;;;;;9.88;7.72;;;8.40;99.90;;;;;;1841597;77;21091;-78
2021/09/22 00:33:39;;;;;;;11.20;8.85;;;8.40;99.90;;;;;;1841899;76;21091;-79
2021/09/22 00:36:06;;;;;;;13.83;8.53;;;8.40;99.90;;;;;;1842818;76;21169;-79
2021/09/22 00:38:32;;;;;;;13.35;8.68;;;8.40;99.90;;;;;;1842594;78;21165;-79
2021/09/22 00:40:58;;;;;;;10.20;8.03;;;8.30;99.90;;;;;;1842568;78;21530;-79
2021/09/22 00:43:24;;;;;;;11.40;8.73;;;8.30;99.90;;;;;;1841994;76;21510;-79
2021/09/22 00:45:51;;;;;;;11.18;8.35;;;8.20;99.90;;;;;;1841877;77;21564;-79
2021/09/22 00:48:17;;;;;;;9.48;8.48;;;8.30;99.90;;;;;;1842550;77;21467;-79
2021/09/22 00:50:43;;;;;;;11.30;7.80;;;8.40;99.90;;;;;;1841916;78;21091;-79
2021/09/22 00:53:09;;;;;;;12.63;7.85;;;8.40;99.90;;;;;;1842565;78;21272;-79
2021/09/22 00:55:37;;;;;;;12.18;8.25;;;8.40;99.90;;;;;;1843459;76;21087;-78
2021/09/22 00:58:03;;;;;;;13.72;8.23;;;8.40;99.90;;;;;;1841862;77;21215;-80
2021/09/22 01:00:29;;;;;;;10.43;8.40;;;8.40;99.90;;;;;;1837836;77;21083;-80
2021/09/22 01:02:55;;;;;;;11.05;8.68;;;8.40;99.90;;;;;;1842010;78;21483;-79
2021/09/22 01:05:22;;;;;;;10.20;8.65;;;8.40;99.90;;;;;;1843456;76;21460;-79
2021/09/22 01:07:48;;;;;;;14.35;8.70;;;8.50;99.90;;;;;;1843453;78;21582;-80
2021/09/22 01:10:14;;;;;;;11.60;9.45;;;8.40;99.90;;;;;;1841573;78;21168;-80
2021/09/22 01:12:40;;;;;;;11.93;9.90;;;8.30;99.90;;;;;;1842684;78;21079;-79
2021/09/22 01:15:06;;;;;;;20.23;11.88;;;8.30;99.90;;;;;;1842713;78;21165;-79
2021/09/22 01:17:32;;;;;;;16.20;11.48;;;8.30;99.90;;;;;;1841503;76;21087;-79
2021/09/22 01:19:59;;;;;;;16.50;11.00;;;8.30;99.90;;;;;;1842677;78;21095;-80
2021/09/22 01:22:25;;;;;;;13.72;11.00;;;8.30;99.90;;;;;;1842310;78;21078;-80
2021/09/22 01:24:51;;;;;;;12.10;10.78;;;8.20;99.90;;;;;;1842471;78;21103;-79
2021/09/22 01:27:17;;;;;;;14.75;11.55;;;8.20;99.90;;;;;;1841734;77;21059;-79
2021/09/22 01:29:45;;;;;;;18.55;10.80;;;8.20;99.90;;;;;;1842220;76;21247;-80
2021/09/22 01:32:11;;;;;;;12.40;10.82;;;8.20;99.90;;;;;;1841672;76;21186;-79
2021/09/22 01:34:37;;;;;;;18.67;10.43;;;8.20;99.90;;;;;;1842168;77;21107;-80
2021/09/22 01:37:03;;;;;;;15.50;10.68;;;8.20;99.90;;;;;;1842000;76;21531;-80
2021/09/22 01:39:29;;;;;;;14.58;10.65;;;8.20;99.90;;;;;;1841657;78;21498;-79
2021/09/22 01:41:55;;;;;;;14.05;10.23;;;8.20;99.90;;;;;;1843010;78;21478;-80
2021/09/22 01:44:22;;;;;;;11.22;10.13;;;8.10;99.90;;;;;;1842960;76;21730;-80
2021/09/22 01:46:50;;;;;;;12.95;10.18;;;8.10;99.90;;;;;;1841980;77;21754;-79
2021/09/22 01:49:15;;;;;;;14.83;10.13;;;8.10;99.90;;;;;;1842870;77;21116;-80
2021/09/22 01:51:42;;;;;;;13.45;10.43;;;8.10;99.90;;;;;;1842410;78;21166;-80
2021/09/22 01:54:08;;;;;;;15.28;10.20;;;8.10;99.90;;;;;;1842013;78;21177;-79
2021/09/22 01:56:34;;;;;;;12.33;9.75;;;8.10;99.90;;;;;;1842044;76;21097;-79
2021/09/22 01:59:00;;;;;;;13.32;10.15;;;8.00;99.90;;;;;;1842889;77;21499;-80
2021/09/22 02:01:26;;;;;;;14.87;9.60;;;8.00;99.90;;;;;;1842041;76;21475;-79
2021/09/22 02:03:52;;;;;;;10.75;9.65;;;8.00;99.90;;;;;;1841956;76;21533;-79
2021/09/22 02:06:18;;;;;;;11.00;9.60;;;8.00;99.90;;;;;;1841658;77;21526;-79
2021/09/22 02:08:45;;;;;;;10.63;9.48;;;7.90;99.90;;;;;;1843690;78;21079;-78
2021/09/22 02:11:11;;;;;;;12.93;10.58;;;7.90;99.90;;;;;;1842165;78;21071;-78
2021/09/22 02:13:37;;;;;;;15.90;10.40;;;7.80;99.90;;;;;;1842759;78;21079;-79
2021/09/22 02:16:05;;;;;;;14.55;10.38;;;7.80;99.90;;;;;;1844151;78;21132;-79
2021/09/22 02:18:31;;;;;;;18.80;10.63;;;7.80;99.90;;;;;;1842445;76;21108;-79
2021/09/22 02:20:57;;;;;;;17.67;10.95;;;7.80;99.90;;;;;;1841893;76;21071;-79
2021/09/22 02:23:23;;;;;;;14.95;10.48;;;7.80;99.90;;;;;;1841795;77;21122;-79
2021/09/22 02:25:49;;;;;;;14.33;10.10;;;7.90;99.90;;;;;;1843136;78;21075;-79
2021/09/22 02:28:15;;;;;;;13.18;10.25;;;7.90;99.90;;;;;;1842197;78;21169;-79
2021/09/22 02:30:42;;;;;;;13.58;10.10;;;7.90;99.90;;;;;;1842958;78;21173;-80
2021/09/22 02:33:08;;;;;;;19.67;10.20;;;7.80;99.90;;;;;;1842931;77;21091;-79
2021/09/22 02:35:34;;;;;;;14.03;10.03;;;7.80;99.90;;;;;;1841992;78;21541;-79
2021/09/22 02:38:00;;;;;;;14.90;10.38;;;7.70;99.90;;;;;;1842437;77;21096;-79
2021/09/22 02:40:26;;;;;;;13.15;10.78;;;7.70;99.90;;;;;;1842408;78;21209;-79
2021/09/22 02:42:52;;;;;;;13.30;10.55;;;7.70;99.90;;;;;;1841582;78;21087;-79
2021/09/22 02:45:18;;;;;;;12.88;10.03;;;7.70;99.90;;;;;;1842367;78;21091;-79
2021/09/22 02:47:44;;;;;;;12.85;9.55;;;7.70;99.90;;;;;;1842024;76;21102;-79
2021/09/22 02:50:12;;;;;;;13.22;9.93;;;7.70;99.90;;;;;;1842537;76;21083;-79
2021/09/22 02:52:38;;;;;;;11.12;9.40;;;7.70;99.90;;;;;;1841997;76;21100;-79
2021/09/22 02:55:04;;;;;;;11.97;9.40;;;7.70;99.90;;;;;;1842836;78;21063;-79
2021/09/22 02:57:31;;;;;;;12.05;9.33;;;7.60;99.90;;;;;;1842916;77;21083;-79
2021/09/22 02:59:57;;;;;;;11.85;9.90;;;7.60;99.90;;;;;;1841333;76;21164;-78
2021/09/22 03:02:23;;;;;;;12.65;9.75;;;7.60;99.90;;;;;;1842552;78;21091;-79
2021/09/22 03:04:49;;;;;;;15.15;10.28;;;7.60;99.90;;;;;;1843850;77;21083;-79
2021/09/22 03:07:15;;;;;;;13.75;9.53;;;7.60;99.90;;;;;;1842238;76;21234;-79
2021/09/22 03:09:41;;;;;;;12.33;10.55;;;7.60;99.90;;;;;;1844025;76;21083;-79
2021/09/22 03:12:07;;;;;;;13.85;10.55;;;7.50;99.90;;;;;;1842527;78;21083;-80
2021/09/22 03:14:33;;;;;;;15.43;11.43;;;7.60;99.90;;;;;;1841541;76;21165;-79
2021/09/22 03:17:00;;;;;;;11.70;9.23;;;7.50;99.90;;;;;;1842914;76;21087;-80
2021/09/22 03:19:27;;;;;;;15.83;9.63;;;7.50;99.90;;;;;;1842758;76;21169;-79
2021/09/22 03:21:53;;;;;;;12.23;9.75;;;7.50;99.90;;;;;;1842393;78;21122;-79
2021/09/22 03:24:19;;;;;;;11.83;9.88;;;7.50;99.90;;;;;;1843057;78;21091;-80
2021/09/22 03:26:45;;;;;;;10.65;9.55;;;7.60;99.90;;;;;;1842731;76;21090;-80
2021/09/22 03:29:11;;;;;;;12.18;9.23;;;7.50;99.90;;;;;;1843056;76;21110;-80
2021/09/22 03:31:37;;;;;;;15.28;10.13;;;7.50;99.90;;;;;;1843734;78;21090;-80
2021/09/22 03:34:04;;;;;;;14.30;10.32;;;7.40;99.90;;;;;;1842774;77;21211;-80
2021/09/22 03:36:30;;;;;;;14.75;10.82;;;7.40;99.90;;;;;;1842808;76;21087;-80
2021/09/22 03:38:56;;;;;;;12.93;9.90;;;7.40;99.90;;;;;;1843201;76;21252;-79
2021/09/22 03:41:22;;;;;;;12.28;9.60;;;7.40;99.90;;;;;;1843061;78;21506;-80
2021/09/22 03:43:48;;;;;;;11.10;9.93;;;7.40;99.90;;;;;;1842913;78;21556;-80
2021/09/22 03:46:14;;;;;;;14.30;10.60;;;7.40;99.90;;;;;;1843269;77;21138;-79
2021/09/22 03:48:40;;;;;;;13.95;10.08;;;7.40;99.90;;;;;;1842867;77;21463;-80
2021/09/22 03:51:07;;;;;;;12.80;10.70;;;7.40;99.90;;;;;;1845902;76;21166;-80
2021/09/22 03:53:33;;;;;;;12.03;10.30;;;7.30;99.90;;;;;;1844239;78;21185;-79
2021/09/22 03:55:59;;;;;;;16.00;10.45;;;7.30;99.90;;;;;;1843038;76;21087;-80
2021/09/22 03:58:25;;;;;;;14.83;11.10;;;7.30;99.90;;;;;;1842888;76;21169;-79
2021/09/22 04:00:51;;;;;;;14.23;11.12;;;7.30;99.90;;;;;;1842556;76;21064;-79
2021/09/22 04:03:17;;;;;;;14.53;10.98;;;7.20;99.90;;;;;;1841901;76;21087;-79
2021/09/22 04:05:46;;;;;;;19.05;10.63;;;7.20;99.90;;;;;;1842641;76;21164;-79
2021/09/22 04:08:12;;;;;;;23.80;10.78;;;7.20;99.90;;;;;;1817414;78;21445;-79
2021/09/22 04:10:38;;;;;;;15.15;10.25;;;7.20;99.90;;;;;;1842787;77;21577;-80
2021/09/22 04:13:04;;;;;;;14.78;10.60;;;7.20;99.90;;;;;;1842098;78;21095;-80
2021/09/22 04:15:31;;;;;;;13.95;10.50;;;7.20;99.90;;;;;;1842828;76;21252;-79
2021/09/22 04:17:57;;;;;;;13.22;10.23;;;7.20;99.90;;;;;;1841785;78;21095;-79
2021/09/22 04:20:23;;;;;;;14.00;10.28;;;7.20;99.90;;;;;;1814356;77;21133;-79
2021/09/22 04:22:49;;;;;;;11.28;10.08;;;7.10;99.90;;;;;;1842332;78;21090;-79
2021/09/22 04:25:15;;;;;;;12.98;10.13;;;7.10;99.90;;;;;;1841404;76;21086;-80
2021/09/22 04:27:41;;;;;;;11.70;10.08;;;7.10;99.90;;;;;;1843078;78;21090;-80
2021/09/22 04:30:07;;;;;;;20.08;11.97;;;7.00;99.90;;;;;;1841406;78;21199;-80
2021/09/22 04:32:33;;;;;;;16.73;11.73;;;7.00;99.90;;;;;;1842906;76;21177;-82
2021/09/22 04:35:01;;;;;;;13.55;11.68;;;7.10;99.90;;;;;;1841447;76;21141;-81
2021/09/22 04:37:32;;;;;;;14.50;11.28;;;7.00;99.90;;;;;;1843712;78;21609;-81
2021/09/22 04:39:55;;;;;;;15.08;11.22;;;7.10;99.90;;;;;;1842929;77;21132;-81
2021/09/22 04:42:21;;;;;;;13.20;10.53;;;7.00;99.90;;;;;;1842034;76;21094;-81
2021/09/22 04:44:47;;;;;;;17.80;11.33;;;7.00;99.90;;;;;;1844318;77;21163;-80
2021/09/22 04:47:14;;;;;;;16.50;11.97;;;7.00;99.90;;;;;;1842989;76;21094;-80
2021/09/22 04:49:41;;;;;;;12.63;11.03;;;7.00;99.90;;;;;;1842905;77;21087;-80
2021/09/22 04:52:07;;;;;;;16.48;11.40;;;7.00;99.90;;;;;;1843330;76;21087;-80
2021/09/22 04:54:33;;;;;;;18.60;11.35;;;7.00;99.90;;;;;;1841960;78;21094;-82
2021/09/22 04:57:01;;;;;;;11.78;10.28;;;6.90;99.90;;;;;;1844034;76;21084;-77
2021/09/22 04:59:27;;;;;;;13.45;11.35;;;7.00;99.90;;;;;;1841964;77;21190;-77
2021/09/22 05:01:53;;;;;;;16.70;11.50;;;7.00;99.90;;;;;;1842132;77;21091;-78
2021/09/22 05:04:20;;;;;;;17.30;12.05;;;6.90;99.90;;;;;;1841493;76;21087;-78
2021/09/22 05:06:46;;;;;;;17.10;12.98;;;6.90;99.90;;;;;;1842460;78;21091;-78
2021/09/22 05:09:12;;;;;;;15.13;12.28;;;6.90;99.90;;;;;;1842096;78;21591;-77
2021/09/22 05:11:40;;;;;;;14.05;11.80;;;6.90;99.90;;;;;;1843067;77;21592;-77
2021/09/22 05:14:06;;;;;;;13.75;11.93;;;6.90;99.90;;;;;;1842071;78;21104;-78
2021/09/22 05:16:34;;;;;;;18.15;13.05;;;6.90;99.90;;;;;;1841564;78;21087;-78
2021/09/22 05:19:00;;;;;;;16.77;12.58;;;7.00;99.90;;;;;;1842435;76;21127;-78
2021/09/22 05:21:26;;;;;;;15.80;12.88;;;7.00;99.90;;;;;;1843096;76;21201;-78
2021/09/22 05:23:52;;;;;;;20.15;13.68;;;7.00;99.90;;;;;;1842086;76;21083;-77
2021/09/22 05:26:18;;;;;;;19.30;11.33;;;6.90;99.90;;;;;;1842518;78;21091;-78
2021/09/22 05:28:45;;;;;;;14.23;12.28;;;6.90;99.90;;;;;;1842448;77;21152;-77
2021/09/22 05:31:11;;;;;;;17.30;12.85;;;6.90;99.90;;;;;;1843419;76;21086;-79
2021/09/22 05:33:37;;;;;;;17.92;11.75;;;7.00;99.90;;;;;;1843995;77;21060;-77
2021/09/22 05:36:03;;;;;;;17.87;11.85;;;7.00;99.90;;;;;;1843017;76;21247;-77
2021/09/22 05:38:29;;;;;;;13.88;11.85;;;7.10;99.90;;;;;;1841491;77;21572;-78
2021/09/22 05:40:55;;;;;;;16.67;12.18;;;7.10;99.90;;;;;;1842591;77;21628;-77
2021/09/22 05:43:21;;;;;;;17.42;13.03;;;7.10;99.90;;;;;;1841864;78;21084;-76
2021/09/22 05:45:48;;;;;;;19.75;13.13;;;7.20;99.90;;;;;;1843165;78;21161;-74
2021/09/22 05:48:14;;;;;;;17.05;12.82;;;7.30;99.90;;;;;;1842112;76;21087;-77
2021/09/22 05:50:40;;;;;;;14.95;12.25;;;7.30;99.90;;;;;;1842129;77;21153;-76
2021/09/22 05:53:06;;;;;;;19.10;12.90;;;7.30;99.90;;;;;;1842591;77;21148;-85
2021/09/22 05:55:32;;;;;;;17.55;11.33;;;7.30;99.90;;;;;;1843437;78;21056;-77
2021/09/22 05:57:58;;;;;;;21.42;13.43;;;7.40;99.90;;;;;;1844872;76;21274;-90
2021/09/22 06:00:24;;;;;;;16.50;12.10;;;7.60;99.90;;;;;;1842841;78;21090;-86
2021/09/22 06:02:52;;;;;;;14.43;11.65;;;7.70;99.90;;;;;;1842437;77;21102;-85
2021/09/22 06:05:18;;;;;;;14.10;11.18;;;7.80;99.90;;;;;;1841826;76;21190;-77
2021/09/22 06:07:44;;;;;;;16.02;11.40;;;7.90;99.90;;;;;;1815637;77;21086;-77
2021/09/22 06:10:10;;;;;;;13.62;11.03;;;7.90;99.90;;;;;;1843366;78;21165;-78
2021/09/22 06:12:37;;;;;;;18.45;11.53;;;8.00;99.90;;;;;;1841962;78;21165;-78
2021/09/22 06:15:03;;;;;;;17.32;11.57;;;8.00;99.90;;;;;;1844615;78;21511;-75
2021/09/22 06:17:29;;;;;;;13.03;10.00;;;8.10;99.90;;;;;;1842320;76;21461;-77
2021/09/22 06:19:55;;;;;;;13.32;10.25;;;8.20;99.90;;;;;;1843268;77;21573;-77
2021/09/22 06:22:26;;;;;;;19.02;11.30;;;8.30;99.90;;;;;;1842095;78;21507;-77
2021/09/22 06:24:52;;;;;;;14.78;10.68;;;8.20;99.90;;;;;;1843121;76;21123;-76
2021/09/22 06:27:18;;;;;;;12.47;10.28;;;8.20;99.90;;;;;;1843853;76;21149;-75
2021/09/22 06:29:44;;;;;;;16.50;10.45;;;8.20;99.90;;;;;;1841721;76;21146;-78
2021/09/22 06:32:10;;;;;;;15.70;10.32;;;8.30;99.90;;;;;;1841545;78;21079;-77
2021/09/22 06:34:36;;;;;;;16.77;11.08;;;8.40;99.90;;;;;;1841941;76;21169;-76
2021/09/22 06:37:02;;;;;;;19.12;10.98;;;8.40;99.90;;;;;;1843117;76;21091;-75
2021/09/22 06:39:29;;;;;;;14.68;10.28;;;8.50;99.90;;;;;;1842637;76;21103;-79
2021/09/22 06:41:55;;;;;;;17.15;10.68;;;8.50;99.90;;;;;;1843121;76;21103;-75
2021/09/22 06:44:21;;;;;;;16.85;11.25;;;8.50;99.90;;;;;;1841731;76;21178;-78
2021/09/22 06:46:47;;;;;;;19.65;11.70;;;8.60;99.90;;;;;;1844522;76;21116;-77
2021/09/22 06:49:14;;;;;;;13.75;10.70;;;8.60;99.90;;;;;;1845374;76;21588;-79
2021/09/22 06:51:40;;;;;;;21.62;11.60;;;8.60;99.90;;;;;;1845319;77;21096;-79
2021/09/22 06:54:06;;;;;;;18.07;10.93;;;8.90;99.90;;;;;;1845799;77;21057;-77
2021/09/22 06:56:32;;;;;;;18.15;10.65;;;8.90;99.90;;;;;;1845251;78;21202;-78
2021/09/22 06:58:58;;;;;;;18.50;11.83;;;9.10;99.90;;;;;;1844946;76;21634;-75
2021/09/22 07:01:24;;;;;;;12.58;11.15;;;9.20;99.90;;;;;;1841941;78;21165;-79
2021/09/22 07:03:50;;;;;;;16.97;11.05;;;9.30;99.90;;;;;;1841812;76;21064;-76
2021/09/22 07:06:16;;;;;;;16.05;11.70;;;9.30;99.90;;;;;;1842051;77;21091;-78
2021/09/22 07:08:43;;;;;;;13.78;10.88;;;9.30;99.90;;;;;;1841866;78;21091;-75
2021/09/22 07:11:09;;;;;;;14.87;11.53;;;9.40;99.90;;;;;;1842969;76;21164;-76
2021/09/22 07:13:37;;;;;;;17.00;11.57;;;9.40;99.90;;;;;;1842744;78;21060;-76
2021/09/22 07:16:03;;;;;;;13.15;11.15;;;9.40;99.90;;;;;;1844406;76;21527;-76
2021/09/22 07:18:29;;;;;;;17.67;12.00;;;9.70;99.90;;;;;;1843430;78;21576;-75
2021/09/22 07:20:55;;;;;;;13.45;11.18;;;9.80;99.90;;;;;;1842953;78;21538;-79
2021/09/22 07:23:21;;;;;;;20.55;11.30;;;9.80;99.90;;;;;;1842225;76;21129;-76
2021/09/22 07:25:47;;;;;;;20.40;12.13;;;9.90;99.90;;;;;;1841855;76;21167;-76
2021/09/22 07:28:13;;;;;;;18.27;12.10;;;9.80;99.90;;;;;;1842396;78;21193;-76
2021/09/22 07:30:39;;;;;;;15.83;12.13;;;9.90;99.90;;;;;;1842431;77;21094;-76
2021/09/22 07:33:06;;;;;;;15.43;11.60;;;10.00;99.90;;;;;;1843306;78;21059;-76
2021/09/22 07:35:32;;;;;;;20.80;12.43;;;10.20;99.90;;;;;;1843619;77;21158;-76
2021/09/22 07:37:58;;;;;;;13.48;11.70;;;10.20;99.90;;;;;;1842910;76;21087;-77
2021/09/22 07:40:24;;;;;;;18.00;11.57;;;10.20;99.90;;;;;;1841354;78;21149;-77
2021/09/22 07:42:51;;;;;;;23.95;12.50;;;10.30;99.90;;;;;;1842294;76;21056;-76
2021/09/22 07:45:17;;;;;;;17.45;11.18;;;10.50;99.90;;;;;;1843585;78;21169;-76
2021/09/22 07:47:43;;;;;;;12.90;11.12;;;10.60;99.90;;;;;;1843296;78;21156;-76
2021/09/22 07:50:09;;;;;;;12.98;11.40;;;10.60;99.90;;;;;;1842094;76;21157;-76
2021/09/22 07:52:35;;;;;;;16.55;11.43;;;10.70;99.90;;;;;;1843242;77;21592;-76
2021/09/22 07:55:02;;;;;;;13.48;11.18;;;10.70;99.90;;;;;;1842365;77;21648;-77
2021/09/22 07:57:28;;;;;;;12.60;10.90;;;10.90;99.90;;;;;;1841742;77;21098;-77
2021/09/22 07:59:55;;;;;;;16.17;11.12;;;11.20;99.90;;;;;;1842960;76;21146;-76
2021/09/22 08:02:22;;;;;;;12.58;10.88;;;11.50;99.90;;;;;;1841527;76;21518;-76
2021/09/22 08:04:48;;;;;;;16.67;11.30;;;11.50;99.90;;;;;;1842450;77;21747;-77
2021/09/22 08:07:15;;;;;;;13.13;10.72;;;11.50;99.90;;;;;;1842627;78;21565;-76
2021/09/22 08:09:41;;;;;;;12.53;11.00;;;11.80;99.90;;;;;;1843077;78;21096;-77
2021/09/22 08:12:07;;;;;;;14.80;11.05;;;11.90;99.90;;;;;;1842592;76;21235;-77
2021/09/22 08:14:37;;;;;;;16.02;10.10;;;12.10;99.90;;;;;;1843060;78;21264;-76
2021/09/22 08:17:01;;;;;;;15.78;11.28;;;12.60;99.90;;;;;;1842682;76;21123;-77
2021/09/22 08:19:27;;;;;;;15.93;11.55;;;13.00;99.90;;;;;;1842139;77;21169;-76
2021/09/22 08:21:54;;;;;;;13.75;10.60;;;12.60;99.90;;;;;;1841637;77;21152;-77
2021/09/22 08:24:20;;;;;;;16.93;11.85;;;12.60;99.90;;;;;;1842406;76;21157;-77
2021/09/22 08:26:46;;;;;;;14.15;11.15;;;12.70;99.90;;;;;;1842018;78;21090;-77
2021/09/22 08:29:12;;;;;;;16.82;10.75;;;13.10;99.90;;;;;;1842098;76;21222;-77
2021/09/22 08:31:38;;;;;;;14.33;10.55;;;13.20;99.90;;;;;;1843249;76;21152;-77
2021/09/22 08:34:04;;;;;;;13.32;10.70;;;13.80;99.90;;;;;;1842407;78;21087;-76
2021/09/22 08:36:30;;;;;;;13.08;10.55;;;13.70;99.90;;;;;;1842873;78;21161;-78
2021/09/22 08:38:56;;;;;;;17.95;11.45;;;13.60;99.90;;;;;;1843532;77;21091;-78
2021/09/22 08:41:23;;;;;;;16.70;10.60;;;13.70;99.90;;;;;;1843395;76;21087;-78
2021/09/22 08:43:49;;;;;;;16.65;11.00;;;14.00;99.90;;;;;;1841342;78;21594;-77
2021/09/22 08:46:15;;;;;;;14.47;10.70;;;14.20;99.90;;;;;;1842861;78;21169;-78
2021/09/22 08:48:41;;;;;;;16.07;10.80;;;14.40;99.90;;;;;;1842546;78;21060;-78
2021/09/22 08:51:07;;;;;;;15.55;10.13;;;14.50;99.90;;;;;;1842210;78;21095;-78
2021/09/22 08:53:33;;;;;;;12.63;9.65;;;15.10;99.90;;;;;;1841556;76;21111;-78
2021/09/22 08:56:01;;;;;;;11.33;9.23;;;15.20;99.90;;;;;;1841731;78;21068;-78
2021/09/22 08:58:27;;;;;;;12.93;10.13;;;15.30;99.90;;;;;;1842073;78;21222;-80
2021/09/22 09:00:53;;;;;;;14.50;9.55;;;15.00;99.90;;;;;;1842660;78;21173;-79
2021/09/22 09:03:19;;;;;;;10.00;8.88;;;15.30;99.90;;;;;;1842139;77;21172;-81
2021/09/22 09:05:46;;;;;;;9.70;8.45;;;15.30;99.90;;;;;;1841680;78;21491;-81
2021/09/22 09:08:12;;;;;;;11.55;8.10;;;15.30;99.90;;;;;;1842204;78;21561;-81
2021/09/22 09:10:40;;;;;;;14.98;8.55;;;15.80;99.90;;;;;;1842648;76;21693;-81
2021/09/22 09:13:06;;;;;;;12.45;8.75;;;16.10;99.90;;;;;;1844135;76;21139;-80
2021/09/22 09:15:32;;;;;;;13.32;7.35;;;16.10;99.90;;;;;;1842837;77;21099;-81
2021/09/22 09:18:00;;;;;;;12.35;8.05;;;16.50;99.90;;;;;;1842228;78;21098;-79
2021/09/22 09:20:26;;;;;;;13.68;9.38;;;16.50;99.90;;;;;;1842608;78;21122;-82
2021/09/22 09:22:52;;;;;;;9.53;7.58;;;16.20;99.90;;;;;;1841743;76;21164;-82
2021/09/22 09:25:18;;;;;;;11.57;8.60;;;16.00;99.90;;;;;;1841667;76;21172;-83
2021/09/22 09:27:45;;;;;;;9.08;7.47;;;16.20;99.90;;;;;;1842511;78;21595;-80
2021/09/22 09:30:11;;;;;;;16.70;8.53;;;16.70;99.90;;;;;;1842829;76;21502;-83
2021/09/22 09:32:37;;;;;;;10.53;8.50;;;17.00;99.90;;;;;;1842224;76;21534;-79
2021/09/22 09:35:03;;;;;;;8.88;7.12;;;17.30;99.90;;;;;;1842377;77;21580;-78
2021/09/22 09:37:29;;;;;;;11.57;8.80;;;17.30;99.90;;;;;;1841743;78;21522;-81
2021/09/22 09:39:55;;;;;;;9.38;7.87;;;17.60;99.90;;;;;;1842263;78;21099;-78
2021/09/22 09:42:21;;;;;;;10.32;7.55;;;17.70;99.90;;;;;;1843172;77;21099;-79
2021/09/22 09:44:48;;;;;;;10.05;7.50;;;18.10;99.90;;;;;;1841161;76;21098;-76
2021/09/22 09:47:14;;;;;;;22.45;8.20;;;18.30;99.90;;;;;;1841583;78;21091;-77
2021/09/22 09:49:42;;;;;;;10.38;8.23;;;17.90;99.90;;;;;;1841634;78;21172;-78
2021/09/22 09:52:08;;;;;;;11.65;8.78;;;17.30;99.90;;;;;;1842468;76;21519;-79
2021/09/22 09:54:36;;;;;;;12.95;7.85;;;17.40;99.90;;;;;;1841184;78;21468;-79
2021/09/22 09:57:02;;;;;;;12.73;7.10;;;17.80;99.90;;;;;;1842121;77;21106;-79
2021/09/22 09:59:28;;;;;;;10.18;7.37;;;17.90;99.90;;;;;;1842534;76;21252;-79
2021/09/22 10:01:54;;;;;;;10.38;7.40;;;17.50;99.90;;;;;;1841528;78;21106;-80
2021/09/22 10:04:20;;;;;;;8.25;6.75;;;17.80;99.90;;;;;;1841736;78;21067;-80
2021/09/22 10:06:47;;;;;;;10.80;7.30;;;18.20;99.90;;;;;;1841380;76;21106;-80
2021/09/22 10:09:13;;;;;;;8.30;6.22;;;18.70;99.90;;;;;;1842158;76;21110;-81
2021/09/22 10:11:40;;;;;;;9.13;7.03;;;19.30;99.90;;;;;;1841496;76;21305;-80
2021/09/22 10:14:07;;;;;;;9.50;6.97;;;18.70;99.90;;;;;;1841629;78;21169;-78
2021/09/22 10:16:33;;;;;;;8.43;6.70;;;18.60;99.90;;;;;;1841136;78;21099;-79
2021/09/22 10:18:59;;;;;;;7.50;5.95;;;18.90;99.90;;;;;;1842714;76;21172;-79
2021/09/22 10:21:25;;;;;;;9.60;5.75;;;19.30;99.90;;;;;;1842054;76;21270;-80
2021/09/22 10:23:51;;;;;;;11.65;6.25;;;19.70;99.90;;;;;;1842288;78;21264;-80
2021/09/22 10:26:18;;;;;;;7.58;5.55;;;19.00;99.90;;;;;;1842125;76;21179;-80
2021/09/22 10:28:44;;;;;;;10.98;5.55;;;19.20;99.90;;;;;;1842138;77;21115;-80
2021/09/22 10:31:10;;;;;;;6.55;5.83;;;19.10;99.90;;;;;;1841787;78;21254;-79
2021/09/22 10:33:37;;;;;;;7.30;5.45;;;18.80;99.90;;;;;;1842723;78;21507;-80
2021/09/22 10:36:03;;;;;;;8.83;5.67;;;19.30;99.90;;;;;;1842324;76;21160;-80
2021/09/22 10:38:30;;;;;;;10.85;5.42;;;19.50;99.90;;;;;;1843053;77;21169;-80
2021/09/22 10:40:56;;;;;;;8.53;5.33;;;19.30;99.90;;;;;;1841901;77;21176;-77
2021/09/22 10:43:22;;;;;;;5.78;5.20;;;19.70;99.90;;;;;;1841481;78;21172;-80
2021/09/22 10:45:48;;;;;;;9.10;4.83;;;20.10;99.90;;;;;;1841900;78;21158;-77
2021/09/22 10:48:14;;;;;;;8.65;5.12;;;20.30;99.90;;;;;;1842802;77;21091;-79
2021/09/22 10:50:40;;;;;;;7.12;5.28;;;20.10;99.90;;;;;;1842126;77;21095;-79
2021/09/22 10:53:07;;;;;;;5.62;4.95;;;19.80;99.90;;;;;;1842080;78;21095;-81
2021/09/22 10:55:33;;;;;;;4.65;4.20;;;19.40;99.90;;;;;;1841194;76;21172;-83
2021/09/22 10:57:59;;;;;;;8.98;4.08;;;19.20;99.90;;;;;;1841727;78;21172;-82
2021/09/22 11:00:25;;;;;;;6.30;3.90;;;19.50;99.90;;;;;;1843590;76;21177;-82
2021/09/22 11:02:53;;;;;;;4.97;3.65;;;20.00;99.90;;;;;;1844845;76;21087;-77
2021/09/22 11:05:19;;;;;;;5.85;3.15;;;20.30;99.90;;;;;;1841353;78;21288;-78
2021/09/22 11:07:45;;;;;;;4.08;3.60;;;20.50;99.90;;;;;;1842321;76;21165;-78
2021/09/22 11:10:11;;;;;;;5.03;3.50;;;21.30;99.90;;;;;;1842744;78;21095;-77
2021/09/22 11:12:37;;;;;;;7.30;3.92;;;20.50;99.90;;;;;;1843532;77;21160;-75
2021/09/22 11:15:05;;;;;;;5.30;3.60;;;20.70;99.90;;;;;;1841978;77;21649;-77
2021/09/22 11:17:31;;;;;;;4.45;3.62;;;21.00;99.90;;;;;;1842518;78;21504;-76
2021/09/22 11:19:57;;;;;;;4.37;3.37;;;20.90;99.90;;;;;;1843196;77;21067;-73
2021/09/22 11:22:23;;;;;;;3.50;2.67;;;20.90;99.90;;;;;;1841327;78;21095;-74
2021/09/22 11:24:53;;;;;;;3.08;2.37;;;20.70;99.90;;;;;;1843181;76;21095;-73
2021/09/22 11:27:17;;;;;;;3.40;3.00;;;21.00;99.90;;;;;;1842746;77;21131;-74
2021/09/22 11:29:46;;;;;;;6.00;2.80;;;20.90;99.90;;;;;;1843239;77;21068;-75
2021/09/22 11:32:11;;;;;;;3.22;2.95;;;21.00;99.90;;;;;;1842224;77;21259;-76
2021/09/22 11:34:39;;;;;;;5.50;2.30;;;21.60;99.90;;;;;;1842836;78;21114;-74
2021/09/22 11:37:05;;;;;;;5.40;1.90;;;22.10;99.90;;;;;;1842388;76;21657;-75
2021/09/22 11:39:31;;;;;;;2.30;1.35;;;22.40;99.90;;;;;;1843202;77;21652;-81
2021/09/22 11:41:57;;;;;;;1.40;1.30;;;22.30;99.90;;;;;;1842410;77;21539;-81
2021/09/22 11:44:23;;;;;;;1.07;0.98;;;22.70;99.90;;;;;;1842006;78;21463;-83
2021/09/22 11:46:50;;;;;;;1.45;1.35;;;22.80;99.90;;;;;;1841815;76;21565;-80
2021/09/22 11:49:17;;;;;;;1.95;1.70;;;23.00;99.90;;;;;;1843187;78;21172;-80
2021/09/22 11:51:43;;;;;;;1.60;1.42;;;22.20;99.90;;;;;;1818988;77;21101;-79
2021/09/22 11:54:09;;;;;;;1.37;1.27;;;21.80;99.90;;;;;;1842745;77;21091;-78
2021/09/22 11:56:35;;;;;;;1.60;1.42;;;22.10;99.90;;;;;;1842670;78;21193;-78
2021/09/22 11:59:01;;;;;;;2.05;1.35;;;21.20;99.90;;;;;;1844677;76;21102;-78
2021/09/22 12:01:28;;;;;;;1.60;1.50;;;20.70;99.90;;;;;;1843184;77;21095;-77
2021/09/22 12:03:54;;;;;;;4.42;1.87;;;21.20;99.90;;;;;;1841764;78;21152;-79
2021/09/22 12:06:20;;;;;;;1.87;1.27;;;21.50;99.90;;;;;;1841595;77;21288;-79
2021/09/22 12:08:53;;;;;;;5.28;1.55;;;21.70;99.90;;;;;;1842317;76;21150;-79
2021/09/22 12:11:20;;;;;;;2.35;1.15;;;21.90;99.90;;;;;;1842691;76;21094;-82
2021/09/22 12:13:46;;;;;;;3.95;1.30;;;21.60;99.90;;;;;;1841492;77;21664;-79
2021/09/22 12:16:12;;;;;;;2.77;1.37;;;21.60;99.90;;;;;;1842776;76;21503;-77
2021/09/22 12:18:38;;;;;;;1.42;1.32;;;21.90;99.90;;;;;;1843395;77;21571;-80
2021/09/22 12:21:05;;;;;;;7.40;1.30;;;21.80;99.90;;;;;;1842320;78;21550;-80
2021/09/22 12:23:31;;;;;;;2.45;1.60;;;21.70;99.90;;;;;;1841229;77;21098;-79
2021/09/22 12:25:57;;;;;;;2.15;1.27;;;22.00;99.90;;;;;;1813408;78;21158;-79
2021/09/22 12:28:24;;;;;;;2.15;1.20;;;22.10;99.90;;;;;;1842579;78;21122;-79
2021/09/22 12:30:50;;;;;;;2.62;1.30;;;22.50;99.90;;;;;;1841702;76;21568;-80
2021/09/22 12:33:16;;;;;;;2.75;1.30;;;23.20;99.90;;;;;;1842218;78;21134;-80
2021/09/22 12:35:43;;;;;;;1.90;1.30;;;23.50;99.90;;;;;;1842518;78;21177;-79